createdAt,value
2022-09-28T00:00:43.312Z,75.89
2022-09-28T00:03:13.929Z,76.52
2022-09-28T00:05:44.534Z,77.38
2022-09-28T00:08:15.844Z,77.89
2022-09-28T00:10:47.738Z,77.76
2022-09-28T00:13:18.646Z,78.29
2022-09-28T00:15:49.354Z,78.05
2022-09-28T00:18:20.127Z,78.44
2022-09-28T00:20:50.851Z,78.76
2022-09-28T00:23:21.522Z,79.09
2022-09-28T00:25:52.195Z,79.12
2022-09-28T00:28:22.960Z,79.38
2022-09-28T00:30:57.948Z,79.47
2022-09-28T00:33:28.759Z,80.65
2022-09-28T00:36:02.308Z,80.42
2022-09-28T00:38:33.347Z,80.65
2022-09-28T00:41:04.046Z,80.95
2022-09-28T00:43:34.792Z,81.07
2022-09-28T00:46:27.885Z,81.12
2022-09-28T00:49:04.693Z,81.66
2022-09-28T00:51:37.824Z,81.55
2022-09-28T00:54:11.099Z,82.05
2022-09-28T00:56:43.826Z,82.24
2022-09-28T00:59:14.339Z,82.61
2022-09-28T01:01:45.139Z,82.58
2022-09-28T01:04:16.084Z,82.96
2022-09-28T01:06:48.789Z,83.71
2022-09-28T01:09:20.044Z,83.60
2022-09-28T01:11:50.465Z,83.63
2022-09-28T01:14:22.048Z,83.68
2022-09-28T01:17:13.566Z,83.81
2022-09-28T01:20:07.677Z,83.73
2022-09-28T01:23:07.764Z,83.84
2022-09-28T01:25:53.652Z,84.65
2022-09-28T01:28:29.812Z,84.83
2022-09-28T01:31:23.718Z,84.97
2022-09-28T01:34:02.789Z,85.09
2022-09-28T01:36:43.197Z,85.07
2022-09-28T01:39:19.785Z,85.50
2022-09-28T01:41:55.014Z,85.28
2022-09-28T01:44:31.694Z,85.27
2022-09-28T01:47:05.717Z,85.51
2022-09-28T01:50:02.214Z,85.55
2022-09-28T01:52:47.289Z,85.39
2022-09-28T01:55:31.653Z,84.94
2022-09-28T01:58:09.728Z,85.05
2022-09-28T02:00:44.196Z,84.74
2022-09-28T02:03:21.506Z,85.05
2022-09-28T02:06:02.568Z,84.89
2022-09-28T02:08:42.619Z,84.79
2022-09-28T02:11:21.464Z,84.57
2022-09-28T02:14:07.232Z,84.90
2022-09-28T02:16:45.137Z,84.35
2022-09-28T02:19:23.485Z,83.62
2022-09-28T02:22:01.410Z,83.54
2022-09-28T02:24:59.569Z,83.18
2022-09-28T02:27:50.895Z,83.12
2022-09-28T02:30:21.542Z,83.60
2022-09-28T02:32:56.293Z,83.55
2022-09-28T02:35:27.083Z,82.97
2022-09-28T02:37:58.252Z,82.65
2022-09-28T02:40:33.550Z,83.11
2022-09-28T02:43:20.620Z,83.10
2022-09-28T02:46:09.554Z,83.74
2022-09-28T02:49:30.280Z,83.01
2022-09-28T02:52:31.766Z,82.35
2022-09-28T02:55:21.968Z,82.75
2022-09-28T02:58:08.142Z,82.44
2022-09-28T03:01:03.464Z,82.89
2022-09-28T03:03:41.388Z,82.17
2022-09-28T03:06:52.843Z,82.48
2022-09-28T03:09:42.624Z,82.40
2022-09-28T03:12:16.968Z,83.09
2022-09-28T03:14:48.164Z,83.22
2022-09-28T03:17:22.499Z,83.48
2022-09-28T03:19:53.036Z,82.89
2022-09-28T03:22:23.388Z,83.83
2022-09-28T03:24:53.284Z,82.51
2022-09-28T03:27:24.166Z,83.67
2022-09-28T03:29:54.661Z,83.83
2022-09-28T03:32:24.898Z,83.74
2022-09-28T03:34:54.780Z,83.01
2022-09-28T03:37:25.012Z,83.64
2022-09-28T03:39:55.463Z,84.15
2022-09-28T03:42:25.258Z,83.25
2022-09-28T03:44:55.912Z,84.89
2022-09-28T03:47:26.290Z,84.18
2022-09-28T03:49:56.876Z,83.47
2022-09-28T03:52:27.204Z,83.64
2022-09-28T03:54:57.769Z,83.74
2022-09-28T03:57:28.120Z,84.49
2022-09-28T03:59:58.003Z,83.33
2022-09-28T04:02:28.226Z,84.96
2022-09-28T04:04:58.764Z,84.44
2022-09-28T04:07:31.010Z,82.94
2022-09-28T04:10:01.911Z,84.80
2022-09-28T04:12:31.677Z,83.93
2022-09-28T04:15:01.899Z,84.20
2022-09-28T04:17:37.806Z,83.66
2022-09-28T04:20:18.118Z,83.11
2022-09-28T04:23:02.474Z,83.62
2022-09-28T04:25:32.915Z,82.42
2022-09-28T04:28:21.182Z,82.52
2022-09-28T04:30:51.790Z,83.40
2022-09-28T04:33:22.511Z,82.80
2022-09-28T04:35:53.033Z,83.68
2022-09-28T04:38:35.796Z,83.21
2022-09-28T04:41:13.603Z,83.71
2022-09-28T04:43:44.123Z,83.22
2022-09-28T04:46:14.867Z,83.99
2022-09-28T04:48:52.213Z,84.14
2022-09-28T04:51:35.460Z,84.57
2022-09-28T04:54:05.911Z,83.69
2022-09-28T04:56:35.788Z,83.04
2022-09-28T04:59:07.138Z,83.65
2022-09-28T05:01:39.096Z,84.17
2022-09-28T05:04:12.444Z,84.14
2022-09-28T05:06:51.205Z,84.57
2022-09-28T05:09:21.066Z,83.56
2022-09-28T05:11:54.324Z,84.30
2022-09-28T05:14:27.664Z,84.52
2022-09-28T05:16:58.326Z,84.06
2022-09-28T05:19:29.052Z,84.88
2022-09-28T05:22:07.248Z,83.72
2022-09-28T05:24:47.739Z,84.54
2022-09-28T05:27:18.318Z,84.46
2022-09-28T05:29:57.400Z,82.80
2022-09-28T05:32:27.829Z,84.69
2022-09-28T05:35:18.537Z,83.87
2022-09-28T05:37:50.708Z,83.82
2022-09-28T05:40:21.328Z,84.89
2022-09-28T05:42:52.664Z,85.65
2022-09-28T05:45:23.704Z,84.59
2022-09-28T05:47:54.191Z,85.42
2022-09-28T05:50:25.635Z,85.08
2022-09-28T05:53:11.214Z,85.28
2022-09-28T05:55:41.594Z,85.81
2022-09-28T05:58:11.512Z,84.64
2022-09-28T06:00:41.531Z,85.18
2022-09-28T06:03:16.392Z,85.20
2022-09-28T06:05:48.727Z,85.38
2022-09-28T06:08:19.255Z,85.64
2022-09-28T06:11:02.474Z,86.09
2022-09-28T06:13:33.416Z,86.08
2022-09-28T06:16:06.116Z,87.04
2022-09-28T06:18:36.675Z,86.17
2022-09-28T06:21:44.822Z,87.04
2022-09-28T06:24:15.426Z,86.83
2022-09-28T06:26:45.853Z,86.89
2022-09-28T06:29:19.946Z,87.01
2022-09-28T06:31:50.562Z,86.68
2022-09-28T06:34:22.726Z,86.78
2022-09-28T06:36:53.119Z,87.03
2022-09-28T06:39:23.558Z,87.54
2022-09-28T06:41:53.771Z,86.17
2022-09-28T06:44:25.601Z,87.46
2022-09-28T06:47:25.017Z,86.47
2022-09-28T06:50:13.541Z,86.95
2022-09-28T06:53:12.245Z,86.90
2022-09-28T06:56:05.094Z,87.21
2022-09-28T06:58:35.360Z,87.12
2022-09-28T07:01:07.055Z,86.71
2022-09-28T07:03:45.652Z,87.26
2022-09-28T07:06:49.507Z,87.40
2022-09-28T07:09:42.236Z,87.26
2022-09-28T07:12:23.104Z,87.40
2022-09-28T07:14:58.508Z,87.31
2022-09-28T07:17:31.456Z,87.08
2022-09-28T07:20:17.319Z,87.35
2022-09-28T07:23:07.090Z,87.41
2022-09-28T07:26:08.778Z,87.33
2022-09-28T07:28:57.765Z,87.56
2022-09-28T07:31:39.817Z,87.14
2022-09-28T07:34:19.845Z,87.81
2022-09-28T07:37:20.241Z,87.66
2022-09-28T07:40:10.402Z,88.15
2022-09-28T07:42:41.766Z,87.81
2022-09-28T07:45:13.650Z,87.85
2022-09-28T07:47:44.891Z,87.82
2022-09-28T07:50:49.227Z,88.04
2022-09-28T07:53:31.065Z,88.11
2022-09-28T07:56:15.765Z,88.21
2022-09-28T07:58:58.694Z,88.37
2022-09-28T08:01:50.905Z,89.03
2022-09-28T08:04:21.839Z,89.10
2022-09-28T08:06:52.260Z,89.20
2022-09-28T08:09:22.135Z,88.64
2022-09-28T08:12:10.860Z,88.32
2022-09-28T08:15:04.098Z,89.73
2022-09-28T08:18:09.646Z,90.20
2022-09-28T08:20:58.951Z,90.40
2022-09-28T08:23:30.093Z,90.70
2022-09-28T08:26:00.675Z,90.71
2022-09-28T08:28:31.224Z,90.78
2022-09-28T08:31:08.708Z,91.23
2022-09-28T08:34:01.643Z,91.67
2022-09-28T08:36:58.090Z,91.87
2022-09-28T08:39:46.848Z,91.95
2022-09-28T08:42:46.333Z,92.05
2022-09-28T08:45:53.337Z,92.00
2022-09-28T08:49:30.935Z,91.91
2022-09-28T08:52:29.846Z,92.22
2022-09-28T08:55:33.548Z,92.57
2022-09-28T08:58:13.038Z,92.26
2022-09-28T09:00:55.616Z,91.85
2022-09-28T09:03:35.066Z,92.35
2022-09-28T09:06:53.354Z,92.04
2022-09-28T09:09:35.642Z,92.57
2022-09-28T09:12:16.237Z,93.08
2022-09-28T09:14:57.987Z,92.53
2022-09-28T09:17:44.222Z,92.58
2022-09-28T09:21:09.379Z,92.38
2022-09-28T09:23:54.781Z,92.74
2022-09-28T09:26:37.007Z,92.71
2022-09-28T09:29:19.634Z,92.73
2022-09-28T09:32:22.505Z,92.66
2022-09-28T09:35:15.043Z,92.45
2022-09-28T09:38:37.684Z,92.37
2022-09-28T09:41:46.636Z,92.32
2022-09-28T09:45:15.923Z,92.25
2022-09-28T09:48:16.410Z,92.72
2022-09-28T09:50:55.113Z,92.63
2022-09-28T09:53:40.367Z,92.67
2022-09-28T09:56:21.546Z,92.51
2022-09-28T09:59:25.540Z,92.02
2022-09-28T10:02:31.008Z,91.82
2022-09-28T10:05:29.011Z,91.87
2022-09-28T10:08:11.705Z,91.97
2022-09-28T10:10:54.653Z,91.62
2022-09-28T10:13:26.985Z,91.69
2022-09-28T10:15:58.738Z,91.27
2022-09-28T10:18:38.038Z,91.23
2022-09-28T10:21:48.541Z,91.31
2022-09-28T10:24:32.715Z,90.80
2022-09-28T10:27:19.836Z,90.75
2022-09-28T10:30:14.219Z,90.56
2022-09-28T10:32:50.231Z,90.52
2022-09-28T10:35:20.568Z,89.76
2022-09-28T10:38:05.676Z,90.70
2022-09-28T10:40:57.341Z,90.25
2022-09-28T10:44:09.940Z,89.74
2022-09-28T10:47:04.926Z,89.46
2022-09-28T10:49:47.261Z,89.19
2022-09-28T10:52:39.117Z,89.03
2022-09-28T10:55:29.645Z,88.69
2022-09-28T10:58:19.258Z,89.01
2022-09-28T11:00:51.003Z,88.77
2022-09-28T11:03:29.372Z,88.35
2022-09-28T11:06:09.754Z,88.45
2022-09-28T11:08:45.239Z,88.42
2022-09-28T11:11:21.321Z,88.26
2022-09-28T11:14:02.985Z,88.35
2022-09-28T11:16:38.669Z,87.97
2022-09-28T11:19:31.093Z,88.05
2022-09-28T11:22:03.179Z,88.30
2022-09-28T11:24:38.633Z,87.55
2022-09-28T11:27:20.654Z,86.19
2022-09-28T11:30:00.963Z,86.19
2022-09-28T11:32:52.473Z,86.49
2022-09-28T11:35:51.427Z,85.85
2022-09-28T11:38:54.957Z,84.90
2022-09-28T11:42:16.263Z,85.31
2022-09-28T11:44:50.872Z,85.18
2022-09-28T11:47:32.204Z,85.53
2022-09-28T11:50:24.389Z,84.66
2022-09-28T11:53:18.678Z,83.87
2022-09-28T11:55:57.517Z,82.88
2022-09-28T11:59:05.324Z,83.12
2022-09-28T12:02:06.849Z,81.84
2022-09-28T12:05:19.900Z,82.14
2022-09-28T12:07:58.664Z,81.79
2022-09-28T12:11:05.217Z,80.83
2022-09-28T12:13:58.602Z,80.65
2022-09-28T12:17:04.862Z,80.23
2022-09-28T12:19:39.448Z,79.87
2022-09-28T12:22:31.010Z,80.02
2022-09-28T12:25:03.366Z,79.98
2022-09-28T12:27:52.341Z,80.10
2022-09-28T12:30:23.498Z,80.12
2022-09-28T12:33:08.797Z,80.08
2022-09-28T12:35:45.460Z,80.79
2022-09-28T12:38:30.333Z,81.08
2022-09-28T12:41:36.387Z,81.11
2022-09-28T12:44:18.553Z,79.21
2022-09-28T12:47:26.765Z,79.16
2022-09-28T12:53:32.332Z,78.55
2022-09-28T12:56:05.927Z,77.19
2022-09-28T12:58:45.366Z,77.40
2022-09-28T13:01:34.768Z,77.34
2022-09-28T13:04:25.883Z,77.66
2022-09-28T13:07:30.221Z,76.92
2022-09-28T13:10:06.799Z,77.86
2022-09-28T13:12:54.882Z,77.09
2022-09-28T13:15:40.329Z,77.33
2022-09-28T13:18:16.945Z,77.64
2022-09-28T13:20:46.716Z,77.20
2022-09-28T13:23:35.802Z,76.98
2022-09-28T13:26:21.921Z,76.45
2022-09-28T13:28:56.204Z,75.73
2022-09-28T13:31:33.978Z,75.42
2022-09-28T13:34:08.548Z,74.87
2022-09-28T13:36:40.479Z,74.71
2022-09-28T13:39:39.151Z,74.28
2022-09-28T13:42:11.587Z,73.27
2022-09-28T13:45:02.028Z,73.73
2022-09-28T13:48:04.437Z,73.48
2022-09-28T13:50:53.249Z,74.81
2022-09-28T13:53:45.103Z,74.36
2022-09-28T13:56:59.846Z,74.70
2022-09-28T13:59:32.449Z,71.98
2022-09-28T14:02:12.298Z,70.62
2022-09-28T14:04:59.668Z,70.41
2022-09-28T14:07:36.665Z,69.77
2022-09-28T14:10:10.065Z,69.27
2022-09-28T14:12:40.435Z,69.45
2022-09-28T14:15:28.629Z,66.83
2022-09-28T14:18:32.961Z,69.32
2022-09-28T14:21:41.367Z,68.54
2022-09-28T14:24:23.810Z,68.43
2022-09-28T14:27:12.561Z,68.46
2022-09-28T14:29:43.431Z,66.67
2022-09-28T14:32:13.772Z,64.80
2022-09-28T14:34:48.355Z,66.25
2022-09-28T14:37:42.146Z,66.40
2022-09-28T14:40:43.759Z,65.44
2022-09-28T14:43:34.485Z,63.03
2022-09-28T14:46:18.412Z,64.81
2022-09-28T14:49:05.008Z,62.75
2022-09-28T14:51:36.644Z,61.50
2022-09-28T14:54:13.168Z,60.54
2022-09-28T14:56:58.057Z,58.59
2022-09-28T14:59:31.913Z,57.59
2022-09-28T15:02:26.980Z,62.75
2022-09-28T15:05:24.225Z,63.64
2022-09-28T15:07:56.770Z,63.86
2022-09-28T15:10:43.353Z,66.06
2022-09-28T15:13:31.415Z,66.82
2022-09-28T15:16:07.454Z,67.67
2022-09-28T15:18:45.332Z,66.43
2022-09-28T15:21:16.376Z,65.28
2022-09-28T15:23:48.321Z,64.97
2022-09-28T15:26:33.530Z,63.87
2022-09-28T15:29:06.696Z,63.99
2022-09-28T15:31:38.016Z,65.82
2022-09-28T15:34:52.498Z,65.96
2022-09-28T15:37:38.368Z,66.99
2022-09-28T15:40:17.969Z,66.94
2022-09-28T15:42:48.955Z,67.54
2022-09-28T15:45:27.801Z,68.12
2022-09-28T15:48:35.039Z,68.52
2022-09-28T15:51:15.705Z,68.78
2022-09-28T15:53:51.182Z,68.67
2022-09-28T15:56:21.938Z,68.62
2022-09-28T15:59:36.872Z,69.24
2022-09-28T16:02:23.870Z,69.91
2022-09-28T16:04:58.138Z,69.33
2022-09-28T16:07:41.640Z,69.57
2022-09-28T16:10:15.361Z,67.95
2022-09-28T16:13:00.471Z,66.54
2022-09-28T16:15:36.352Z,65.66
2022-09-28T16:18:08.577Z,66.44
2022-09-28T16:20:41.452Z,66.30
2022-09-28T16:23:25.492Z,67.32
2022-09-28T16:26:01.507Z,68.41
2022-09-28T16:28:35.193Z,69.35
2022-09-28T16:31:10.656Z,69.01
2022-09-28T16:34:11.588Z,67.56
2022-09-28T16:36:46.560Z,67.81
2022-09-28T16:39:18.872Z,67.62
2022-09-28T16:41:57.001Z,66.99
2022-09-28T16:44:36.319Z,68.19
2022-09-28T16:47:08.092Z,65.31
2022-09-28T16:49:41.551Z,65.05
2022-09-28T16:52:35.565Z,64.27
2022-09-28T16:58:09.490Z,65.20
2022-09-28T17:00:39.944Z,63.52
2022-09-28T17:03:19.587Z,62.16
2022-09-28T17:05:50.430Z,63.61
2022-09-28T17:08:23.495Z,64.05
2022-09-28T17:11:18.148Z,63.03
2022-09-28T17:13:49.489Z,63.60
2022-09-28T17:16:37.273Z,62.96
2022-09-28T17:19:25.344Z,62.23
2022-09-28T17:21:55.862Z,61.36
2022-09-28T17:24:26.266Z,63.11
2022-09-28T17:26:57.320Z,61.09
2022-09-28T17:29:29.023Z,60.71
2022-09-28T17:32:00.224Z,59.97
2022-09-28T17:34:30.772Z,59.94
2022-09-28T17:37:01.372Z,57.67
2022-09-28T17:39:32.985Z,57.32
2022-09-28T17:42:04.903Z,56.97
2022-09-28T17:44:51.124Z,56.57
2022-09-28T17:47:22.788Z,56.14
2022-09-28T17:49:55.260Z,57.18
2022-09-28T17:52:26.877Z,57.34
2022-09-28T17:54:59.106Z,55.72
2022-09-28T17:57:32.699Z,55.78
2022-09-28T18:00:03.531Z,55.41
2022-09-28T18:02:37.190Z,55.54
2022-09-28T18:05:08.271Z,56.13
2022-09-28T18:07:42.239Z,56.53
2022-09-28T18:10:18.102Z,57.16
2022-09-28T18:12:48.853Z,57.07
2022-09-28T18:15:20.763Z,56.74
2022-09-28T18:17:51.547Z,57.96
2022-09-28T18:20:21.972Z,56.75
2022-09-28T18:22:52.360Z,57.28
2022-09-28T18:25:22.854Z,57.88
2022-09-28T18:27:58.614Z,59.08
2022-09-28T18:30:29.975Z,59.32
2022-09-28T18:33:00.537Z,60.31
2022-09-28T18:35:31.008Z,59.82
2022-09-28T18:38:01.589Z,60.12
2022-09-28T18:40:32.070Z,60.75
2022-09-28T18:43:02.729Z,61.18
2022-09-28T18:45:33.036Z,60.64
2022-09-28T18:48:03.836Z,61.39
2022-09-28T18:50:34.337Z,61.63
2022-09-28T18:53:14.362Z,61.31
2022-09-28T18:55:45.984Z,62.22
2022-09-28T18:58:16.436Z,62.83
2022-09-28T19:00:46.756Z,63.45
2022-09-28T19:03:17.270Z,63.22
2022-09-28T19:05:48.006Z,63.34
2022-09-28T19:08:18.411Z,63.86
2022-09-28T19:10:49.879Z,63.47
2022-09-28T19:13:20.279Z,62.57
2022-09-28T19:15:50.741Z,62.41
2022-09-28T19:18:22.492Z,63.12
2022-09-28T19:20:52.871Z,64.55
2022-09-28T19:23:25.620Z,65.96
2022-09-28T19:25:56.008Z,66.04
2022-09-28T19:28:26.407Z,66.64
2022-09-28T19:31:05.954Z,67.79
2022-09-28T19:33:36.863Z,67.99
2022-09-28T19:36:09.917Z,68.35
2022-09-28T19:38:41.529Z,69.22
2022-09-28T19:41:43.149Z,69.11
2022-09-28T19:44:25.924Z,69.15
2022-09-28T19:46:59.311Z,69.14
2022-09-28T19:49:34.274Z,68.64
2022-09-28T19:52:17.729Z,70.53
2022-09-28T19:55:00.497Z,70.74
2022-09-28T19:57:34.609Z,71.11
2022-09-28T20:00:05.733Z,71.82
2022-09-28T20:02:36.716Z,71.30
2022-09-28T20:05:07.461Z,71.05
2022-09-28T20:07:38.019Z,70.89
2022-09-28T20:10:08.844Z,70.29
2022-09-28T20:12:39.527Z,69.61
2022-09-28T20:15:11.871Z,70.43
2022-09-28T20:17:43.312Z,69.84
2022-09-28T20:20:14.374Z,69.61
2022-09-28T20:22:45.280Z,69.92
2022-09-28T20:25:15.839Z,70.30
2022-09-28T20:27:46.417Z,70.90
2022-09-28T20:30:17.073Z,70.95
2022-09-28T20:32:49.512Z,71.43
2022-09-28T20:35:32.144Z,71.80
2022-09-28T20:38:09.245Z,71.89
2022-09-28T20:40:41.407Z,72.89
2022-09-28T20:43:11.768Z,73.02
2022-09-28T20:45:41.692Z,72.23
2022-09-28T20:48:11.873Z,72.73
2022-09-28T20:50:43.905Z,72.98
2022-09-28T20:53:14.329Z,73.88
2022-09-28T20:55:45.574Z,76.21
2022-09-28T20:58:16.023Z,76.10
2022-09-28T21:00:47.077Z,75.59
2022-09-28T21:03:17.442Z,75.61
2022-09-28T21:05:48.002Z,75.11
2022-09-28T21:08:18.781Z,75.05
2022-09-28T21:10:49.353Z,75.26
2022-09-28T21:13:20.002Z,75.47
2022-09-28T21:15:51.671Z,75.55
2022-09-28T21:18:25.088Z,75.79
2022-09-28T21:20:55.955Z,78.27
2022-09-28T21:23:26.419Z,78.53
2022-09-28T21:26:25.775Z,78.89
2022-09-28T21:29:02.513Z,78.27
2022-09-28T21:31:38.540Z,78.14
2022-09-28T21:34:13.441Z,77.60
2022-09-28T21:36:44.774Z,77.90
2022-09-28T21:39:16.810Z,78.28
2022-09-28T21:41:47.362Z,77.04
2022-09-28T21:44:17.970Z,76.63
2022-09-28T21:46:48.541Z,76.37
2022-09-28T21:49:19.097Z,76.77
2022-09-28T21:51:49.557Z,76.89
2022-09-28T21:54:19.631Z,76.55
2022-09-28T21:56:49.854Z,76.81
2022-09-28T21:59:19.728Z,76.58
2022-09-28T22:01:49.974Z,77.55
2022-09-28T22:04:20.592Z,77.20
2022-09-28T22:06:51.257Z,77.67
2022-09-28T22:09:21.090Z,77.00
2022-09-28T22:11:52.663Z,77.75
2022-09-28T22:14:23.541Z,78.26
2022-09-28T22:16:53.771Z,78.15
2022-09-28T22:19:23.957Z,78.84
2022-09-28T22:21:54.454Z,77.82
2022-09-28T22:24:24.579Z,78.55
2022-09-28T22:26:54.418Z,77.71
2022-09-28T22:29:25.246Z,77.98
2022-09-28T22:32:03.414Z,78.16
2022-09-28T22:34:34.379Z,78.39
2022-09-28T22:37:05.556Z,77.97
2022-09-28T22:39:37.868Z,78.25
2022-09-28T22:42:09.808Z,78.15
2022-09-28T22:44:41.765Z,77.90
2022-09-28T22:47:13.002Z,78.11
2022-09-28T22:49:44.947Z,78.93
2022-09-28T22:52:15.673Z,79.55
2022-09-28T22:54:46.879Z,79.07
2022-09-28T22:57:17.442Z,79.99
2022-09-28T22:59:48.173Z,79.10
2022-09-28T23:02:19.080Z,80.18
2022-09-28T23:04:49.777Z,78.80
2022-09-28T23:07:21.199Z,78.56
2022-09-28T23:09:52.064Z,79.07
2022-09-28T23:12:22.891Z,79.02
2022-09-28T23:14:54.229Z,78.54
2022-09-28T23:17:25.269Z,79.43
2022-09-28T23:19:56.089Z,79.05
2022-09-28T23:22:27.328Z,78.59
2022-09-28T23:24:58.369Z,78.50
2022-09-28T23:27:29.220Z,78.27
2022-09-28T23:30:22.842Z,78.40
2022-09-28T23:32:56.714Z,78.53
2022-09-28T23:35:27.382Z,78.68
2022-09-28T23:37:58.196Z,78.16
2022-09-28T23:40:31.248Z,78.07
2022-09-28T23:43:03.247Z,77.33
2022-09-28T23:45:33.765Z,77.13
2022-09-28T23:48:05.099Z,77.20
2022-09-28T23:50:35.695Z,76.88
2022-09-28T23:53:07.025Z,76.81
2022-09-28T23:55:37.652Z,76.82
2022-09-28T23:58:08.608Z,76.86
